sensor_id;sensor_type;location;lat;lon;timestamp;pressure;altitude;pressure_sealevel;temperature;humidity
12172;BME280;6149;52.418;13.668;2023-08-06T00:02:20;100377.25;;;17.21;100.00
12172;BME280;6149;52.418;13.668;2023-08-06T00:04:49;100376.53;;;17.19;100.00
12172;BME280;6149;52.418;13.668;2023-08-06T00:07:16;100373.97;;;17.18;100.00
12172;BME280;6149;52.418;13.668;2023-08-06T00:09:42;100367.66;;;17.19;100.00
12172;BME280;6149;52.418;13.668;2023-08-06T00:12:10;100369.22;;;17.21;100.00
12172;BME280;6149;52.418;13.668;2023-08-06T00:14:38;100363.28;;;17.18;100.00
12172;BME280;6149;52.418;13.668;2023-08-06T00:17:04;100363.28;;;17.18;100.00
12172;BME280;6149;52.418;13.668;2023-08-06T00:19:35;100367.78;;;17.17;100.00
12172;BME280;6149;52.418;13.668;2023-08-06T00:22:01;100364.25;;;17.17;100.00
12172;BME280;6149;52.418;13.668;2023-08-06T00:24:28;100360.63;;;17.18;100.00
12172;BME280;6149;52.418;13.668;2023-08-06T00:26:56;100357.94;;;17.18;100.00
12172;BME280;6149;52.418;13.668;2023-08-06T00:29:23;100350.91;;;17.17;100.00
12172;BME280;6149;52.418;13.668;2023-08-06T00:31:49;100346.41;;;17.17;100.00
12172;BME280;6149;52.418;13.668;2023-08-06T00:34:19;100351.16;;;17.14;100.00
12172;BME280;6149;52.418;13.668;2023-08-06T00:36:47;100357.34;;;17.14;100.00
12172;BME280;6149;52.418;13.668;2023-08-06T00:39:15;100346.91;;;17.11;100.00
12172;BME280;6149;52.418;13.668;2023-08-06T00:41:42;100340.59;;;17.12;100.00
12172;BME280;6149;52.418;13.668;2023-08-06T00:44:10;100347.50;;;17.15;100.00
12172;BME280;6149;52.418;13.668;2023-08-06T00:46:38;100342.16;;;17.15;100.00
12172;BME280;6149;52.418;13.668;2023-08-06T00:49:05;100345.81;;;17.14;100.00
12172;BME280;6149;52.418;13.668;2023-08-06T00:51:34;100342.44;;;17.12;100.00
12172;BME280;6149;52.418;13.668;2023-08-06T00:54:05;100347.06;;;17.10;100.00
12172;BME280;6149;52.418;13.668;2023-08-06T00:56:32;100347.59;;;17.03;100.00
12172;BME280;6149;52.418;13.668;2023-08-06T00:59:03;100344.31;;;17.00;100.00
12172;BME280;6149;52.418;13.668;2023-08-06T01:01:30;100345.44;;;16.97;100.00
12172;BME280;6149;52.418;13.668;2023-08-06T01:04:00;100345.09;;;16.91;100.00
12172;BME280;6149;52.418;13.668;2023-08-06T01:06:35;100342.41;;;16.91;100.00
12172;BME280;6149;52.418;13.668;2023-08-06T01:09:27;100343.16;;;16.93;100.00
12172;BME280;6149;52.418;13.668;2023-08-06T01:12:06;100341.44;;;16.92;100.00
12172;BME280;6149;52.418;13.668;2023-08-06T01:14:48;100338.56;;;16.84;100.00
12172;BME280;6149;52.418;13.668;2023-08-06T01:17:19;100331.19;;;16.76;100.00
12172;BME280;6149;52.418;13.668;2023-08-06T01:19:46;100332.94;;;16.66;100.00
12172;BME280;6149;52.418;13.668;2023-08-06T01:22:15;100333.53;;;16.58;100.00
12172;BME280;6149;52.418;13.668;2023-08-06T01:24:44;100324.34;;;16.51;100.00
12172;BME280;6149;52.418;13.668;2023-08-06T01:27:22;100316.47;;;16.50;100.00
12172;BME280;6149;52.418;13.668;2023-08-06T01:30:00;100324.38;;;16.40;100.00
12172;BME280;6149;52.418;13.668;2023-08-06T01:32:32;100313.69;;;16.40;100.00
12172;BME280;6149;52.418;13.668;2023-08-06T01:35:02;100321.22;;;16.35;100.00
12172;BME280;6149;52.418;13.668;2023-08-06T01:37:32;100315.50;;;16.39;100.00
12172;BME280;6149;52.418;13.668;2023-08-06T01:39:59;100309.84;;;16.33;100.00
12172;BME280;6149;52.418;13.668;2023-08-06T01:42:26;100318.09;;;16.30;100.00
12172;BME280;6149;52.418;13.668;2023-08-06T01:44:54;100311.19;;;16.27;100.00
12172;BME280;6149;52.418;13.668;2023-08-06T01:47:21;100310.34;;;16.27;100.00
12172;BME280;6149;52.418;13.668;2023-08-06T01:49:47;100301.50;;;16.26;100.00
12172;BME280;6149;52.418;13.668;2023-08-06T01:52:16;100292.63;;;16.26;100.00
12172;BME280;6149;52.418;13.668;2023-08-06T01:54:43;100289.00;;;16.27;100.00
12172;BME280;6149;52.418;13.668;2023-08-06T01:57:11;100286.22;;;16.28;100.00
12172;BME280;6149;52.418;13.668;2023-08-06T01:59:40;100279.91;;;16.29;100.00
12172;BME280;6149;52.418;13.668;2023-08-06T02:02:07;100275.28;;;16.31;100.00
12172;BME280;6149;52.418;13.668;2023-08-06T02:04:34;100282.44;;;16.31;100.00
12172;BME280;6149;52.418;13.668;2023-08-06T02:07:01;100284.97;;;16.32;100.00
12172;BME280;6149;52.418;13.668;2023-08-06T02:09:29;100279.66;;;16.32;100.00
12172;BME280;6149;52.418;13.668;2023-08-06T02:11:58;100271.50;;;16.34;100.00
12172;BME280;6149;52.418;13.668;2023-08-06T02:14:25;100272.22;;;16.36;100.00
12172;BME280;6149;52.418;13.668;2023-08-06T02:16:53;100265.78;;;16.38;100.00
12172;BME280;6149;52.418;13.668;2023-08-06T02:19:22;100261.28;;;16.39;100.00
12172;BME280;6149;52.418;13.668;2023-08-06T02:21:49;100265.06;;;16.36;100.00
12172;BME280;6149;52.418;13.668;2023-08-06T02:24:16;100264.19;;;16.36;100.00
12172;BME280;6149;52.418;13.668;2023-08-06T02:26:42;100250.84;;;16.36;100.00
12172;BME280;6149;52.418;13.668;2023-08-06T02:29:14;100257.31;;;16.33;100.00
12172;BME280;6149;52.418;13.668;2023-08-06T02:31:41;100250.28;;;16.32;100.00
12172;BME280;6149;52.418;13.668;2023-08-06T02:34:07;100248.59;;;16.31;100.00
12172;BME280;6149;52.418;13.668;2023-08-06T02:36:36;100244.13;;;16.32;100.00
12172;BME280;6149;52.418;13.668;2023-08-06T02:39:03;100244.97;;;16.32;100.00
12172;BME280;6149;52.418;13.668;2023-08-06T02:41:30;100241.44;;;16.32;100.00
12172;BME280;6149;52.418;13.668;2023-08-06T02:43:58;100245.09;;;16.31;100.00
12172;BME280;6149;52.418;13.668;2023-08-06T02:46:29;100253.94;;;16.31;100.00
12172;BME280;6149;52.418;13.668;2023-08-06T02:48:57;100235.25;;;16.31;100.00
12172;BME280;6149;52.418;13.668;2023-08-06T02:51:25;100237.22;;;16.29;100.00
12172;BME280;6149;52.418;13.668;2023-08-06T02:53:53;100244.50;;;16.27;100.00
12172;BME280;6149;52.418;13.668;2023-08-06T02:56:21;100240.00;;;16.28;100.00
12172;BME280;6149;52.418;13.668;2023-08-06T02:58:49;100239.16;;;16.27;100.00
12172;BME280;6149;52.418;13.668;2023-08-06T03:01:20;100235.03;;;16.23;100.00
12172;BME280;6149;52.418;13.668;2023-08-06T03:03:49;100234.53;;;16.29;100.00
12172;BME280;6149;52.418;13.668;2023-08-06T03:06:41;100240.25;;;16.25;100.00
12172;BME280;6149;52.418;13.668;2023-08-06T03:09:09;100231.53;;;16.23;100.00
12172;BME280;6149;52.418;13.668;2023-08-06T03:11:36;100234.31;;;16.21;100.00
12172;BME280;6149;52.418;13.668;2023-08-06T03:14:04;100227.28;;;16.20;100.00
12172;BME280;6149;52.418;13.668;2023-08-06T03:16:33;100222.94;;;16.19;100.00
12172;BME280;6149;52.418;13.668;2023-08-06T03:19:01;100216.75;;;16.19;100.00
12172;BME280;6149;52.418;13.668;2023-08-06T03:21:28;100210.56;;;16.18;100.00
12172;BME280;6149;52.418;13.668;2023-08-06T03:23:56;100200.84;;;16.17;100.00
12172;BME280;6149;52.418;13.668;2023-08-06T03:26:24;100195.53;;;16.17;100.00
12172;BME280;6149;52.418;13.668;2023-08-06T03:28:52;100187.53;;;16.17;100.00
12172;BME280;6149;52.418;13.668;2023-08-06T03:31:20;100191.03;;;16.18;100.00
12172;BME280;6149;52.418;13.668;2023-08-06T03:33:49;100190.19;;;16.17;100.00
12172;BME280;6149;52.418;13.668;2023-08-06T03:36:21;100184.97;;;16.16;100.00
12172;BME280;6149;52.418;13.668;2023-08-06T03:38:49;100178.91;;;16.14;100.00
12172;BME280;6149;52.418;13.668;2023-08-06T03:41:18;100184.25;;;16.14;100.00
12172;BME280;6149;52.418;13.668;2023-08-06T03:43:44;100180.88;;;16.12;100.00
12172;BME280;6149;52.418;13.668;2023-08-06T03:46:12;100179.16;;;16.11;100.00
12172;BME280;6149;52.418;13.668;2023-08-06T03:48:41;100177.47;;;16.10;100.00
12172;BME280;6149;52.418;13.668;2023-08-06T03:51:07;100177.47;;;16.10;100.00
12172;BME280;6149;52.418;13.668;2023-08-06T03:53:36;100171.44;;;16.08;100.00
12172;BME280;6149;52.418;13.668;2023-08-06T03:56:03;100174.09;;;16.08;100.00
12172;BME280;6149;52.418;13.668;2023-08-06T03:58:30;100157.25;;;16.07;100.00
12172;BME280;6149;52.418;13.668;2023-08-06T04:01:00;100158.22;;;16.06;100.00
12172;BME280;6149;52.418;13.668;2023-08-06T04:03:27;100151.91;;;16.07;100.00
12172;BME280;6149;52.418;13.668;2023-08-06T04:05:54;100144.03;;;16.05;100.00
12172;BME280;6149;52.418;13.668;2023-08-06T04:08:21;100146.56;;;16.07;100.00
12172;BME280;6149;52.418;13.668;2023-08-06T04:10:53;100151.91;;;16.07;100.00
12172;BME280;6149;52.418;13.668;2023-08-06T04:13:21;100150.22;;;16.06;100.00
12172;BME280;6149;52.418;13.668;2023-08-06T04:15:49;100151.31;;;16.03;100.00
12172;BME280;6149;52.418;13.668;2023-08-06T04:18:20;100143.44;;;16.02;100.00
12172;BME280;6149;52.418;13.668;2023-08-06T04:20:48;100133.63;;;16.02;100.00
12172;BME280;6149;52.418;13.668;2023-08-06T04:23:16;100138.94;;;16.02;100.00
12172;BME280;6149;52.418;13.668;2023-08-06T04:25:43;100122.94;;;16.02;100.00
12172;BME280;6149;52.418;13.668;2023-08-06T04:28:12;100121.25;;;16.01;100.00
12172;BME280;6149;52.418;13.668;2023-08-06T04:30:41;100117.75;;;16.01;100.00
12172;BME280;6149;52.418;13.668;2023-08-06T04:33:09;100116.75;;;16.02;100.00
12172;BME280;6149;52.418;13.668;2023-08-06T04:35:37;100113.25;;;16.01;100.00
12172;BME280;6149;52.418;13.668;2023-08-06T04:38:04;100107.78;;;16.03;100.00
12172;BME280;6149;52.418;13.668;2023-08-06T04:40:33;100110.47;;;16.03;100.00
12172;BME280;6149;52.418;13.668;2023-08-06T04:43:01;100107.78;;;16.03;100.00
12172;BME280;6149;52.418;13.668;2023-08-06T04:45:29;100107.91;;;16.01;100.00
12172;BME280;6149;52.418;13.668;2023-08-06T04:47:57;100096.41;;;16.01;100.00
12172;BME280;6149;52.418;13.668;2023-08-06T04:50:25;100102.47;;;16.03;100.00
12172;BME280;6149;52.418;13.668;2023-08-06T04:52:53;100092.50;;;16.05;100.00
12172;BME280;6149;52.418;13.668;2023-08-06T04:55:20;100098.81;;;16.04;100.00
12172;BME280;6149;52.418;13.668;2023-08-06T04:57:48;100101.47;;;16.04;100.00
12172;BME280;6149;52.418;13.668;2023-08-06T05:00:16;100089.00;;;16.04;100.00
12172;BME280;6149;52.418;13.668;2023-08-06T05:02:46;100098.69;;;16.05;100.00
12172;BME280;6149;52.418;13.668;2023-08-06T05:05:14;100101.22;;;16.07;100.00
12172;BME280;6149;52.418;13.668;2023-08-06T05:07:41;100093.22;;;16.07;100.00
12172;BME280;6149;52.418;13.668;2023-08-06T05:10:09;100094.06;;;16.08;100.00
12172;BME280;6149;52.418;13.668;2023-08-06T05:12:39;100092.13;;;16.10;100.00
12172;BME280;6149;52.418;13.668;2023-08-06T05:15:06;100086.66;;;16.11;100.00
12172;BME280;6149;52.418;13.668;2023-08-06T05:17:38;100086.66;;;16.11;100.00
12172;BME280;6149;52.418;13.668;2023-08-06T05:20:07;100084.72;;;16.13;100.00
12172;BME280;6149;52.418;13.668;2023-08-06T05:22:41;100080.09;;;16.15;100.00
12172;BME280;6149;52.418;13.668;2023-08-06T05:25:08;100077.44;;;16.15;100.00
12172;BME280;6149;52.418;13.668;2023-08-06T05:27:38;100080.81;;;16.17;100.00
12172;BME280;6149;52.418;13.668;2023-08-06T05:30:06;100076.44;;;16.16;100.00
12172;BME280;6149;52.418;13.668;2023-08-06T05:32:33;100073.78;;;16.16;100.00
12172;BME280;6149;52.418;13.668;2023-08-06T05:35:01;100070.00;;;16.19;100.00
12172;BME280;6149;52.418;13.668;2023-08-06T05:37:31;100069.88;;;16.20;100.00
12172;BME280;6149;52.418;13.668;2023-08-06T05:39:58;100069.75;;;16.22;100.00
12172;BME280;6149;52.418;13.668;2023-08-06T05:42:26;100070.59;;;16.22;100.00
12172;BME280;6149;52.418;13.668;2023-08-06T05:44:53;100072.41;;;16.22;100.00
12172;BME280;6149;52.418;13.668;2023-08-06T05:47:20;100073.13;;;16.24;100.00
12172;BME280;6149;52.418;13.668;2023-08-06T05:49:46;100068.66;;;16.24;100.00
12172;BME280;6149;52.418;13.668;2023-08-06T05:52:15;100065.72;;;16.27;100.00
12172;BME280;6149;52.418;13.668;2023-08-06T05:54:44;100057.59;;;16.29;100.00
12172;BME280;6149;52.418;13.668;2023-08-06T05:57:12;100055.75;;;16.29;100.00
12172;BME280;6149;52.418;13.668;2023-08-06T05:59:40;100056.75;;;16.28;100.00
12172;BME280;6149;52.418;13.668;2023-08-06T06:02:08;100054.91;;;16.29;100.00
12172;BME280;6149;52.418;13.668;2023-08-06T06:04:38;100053.81;;;16.31;100.00
12172;BME280;6149;52.418;13.668;2023-08-06T06:07:06;100054.53;;;16.33;100.00
12172;BME280;6149;52.418;13.668;2023-08-06T06:09:36;100047.50;;;16.32;100.00
12172;BME280;6149;52.418;13.668;2023-08-06T06:12:07;100046.53;;;16.33;100.00
12172;BME280;6149;52.418;13.668;2023-08-06T06:14:37;100040.03;;;16.36;100.00
12172;BME280;6149;52.418;13.668;2023-08-06T06:17:04;100043.84;;;16.33;100.00
12172;BME280;6149;52.418;13.668;2023-08-06T06:19:30;100040.19;;;16.34;100.00
12172;BME280;6149;52.418;13.668;2023-08-06T06:21:57;100035.69;;;16.35;100.00
12172;BME280;6149;52.418;13.668;2023-08-06T06:24:23;100025.72;;;16.37;100.00
12172;BME280;6149;52.418;13.668;2023-08-06T06:26:51;100035.56;;;16.36;100.00
12172;BME280;6149;52.418;13.668;2023-08-06T06:29:21;100035.44;;;16.38;100.00
12172;BME280;6149;52.418;13.668;2023-08-06T06:31:48;100025.47;;;16.40;100.00
12172;BME280;6149;52.418;13.668;2023-08-06T06:34:16;100034.19;;;16.42;100.00
12172;BME280;6149;52.418;13.668;2023-08-06T06:36:43;100029.69;;;16.43;100.00
12172;BME280;6149;52.418;13.668;2023-08-06T06:39:11;100026.63;;;16.47;100.00
12172;BME280;6149;52.418;13.668;2023-08-06T06:41:39;100023.69;;;16.50;100.00
12172;BME280;6149;52.418;13.668;2023-08-06T06:44:06;100025.97;;;16.55;100.00
12172;BME280;6149;52.418;13.668;2023-08-06T06:46:35;100025.84;;;16.56;100.00
12172;BME280;6149;52.418;13.668;2023-08-06T06:49:03;100030.59;;;16.53;100.00
12172;BME280;6149;52.418;13.668;2023-08-06T06:51:30;100031.44;;;16.53;100.00
12172;BME280;6149;52.418;13.668;2023-08-06T06:53:59;100028.50;;;16.56;100.00
12172;BME280;6149;52.418;13.668;2023-08-06T06:56:26;100027.25;;;16.60;100.00
12172;BME280;6149;52.418;13.668;2023-08-06T06:58:52;100032.47;;;16.62;100.00
12172;BME280;6149;52.418;13.668;2023-08-06T07:01:20;100033.31;;;16.62;100.00
12172;BME280;6149;52.418;13.668;2023-08-06T07:03:51;100028.81;;;16.63;100.00
12172;BME280;6149;52.418;13.668;2023-08-06T07:06:17;100033.94;;;16.66;100.00
12172;BME280;6149;52.418;13.668;2023-08-06T07:08:45;100025.91;;;16.66;100.00
12172;BME280;6149;52.418;13.668;2023-08-06T07:11:16;100026.50;;;16.69;100.00
12172;BME280;6149;52.418;13.668;2023-08-06T07:13:43;100025.34;;;16.72;100.00
12172;BME280;6149;52.418;13.668;2023-08-06T07:16:11;100025.66;;;16.79;100.00
12172;BME280;6149;52.418;13.668;2023-08-06T07:18:37;100024.69;;;16.80;100.00
12172;BME280;6149;52.418;13.668;2023-08-06T07:21:10;100020.06;;;16.82;100.00
12172;BME280;6149;52.418;13.668;2023-08-06T07:23:39;100020.75;;;16.84;100.00
12172;BME280;6149;52.418;13.668;2023-08-06T07:26:05;100017.97;;;16.85;100.00
12172;BME280;6149;52.418;13.668;2023-08-06T07:28:32;100027.53;;;16.88;100.00
12172;BME280;6149;52.418;13.668;2023-08-06T07:31:00;100014.16;;;16.88;100.00
12172;BME280;6149;52.418;13.668;2023-08-06T07:33:26;100023.75;;;16.90;100.00
12172;BME280;6149;52.418;13.668;2023-08-06T07:35:55;100018.97;;;16.94;100.00
12172;BME280;6149;52.418;13.668;2023-08-06T07:38:26;100021.25;;;16.98;100.00
12172;BME280;6149;52.418;13.668;2023-08-06T07:40:54;100014.78;;;17.01;100.00
12172;BME280;6149;52.418;13.668;2023-08-06T07:43:21;100017.31;;;17.02;100.00
12172;BME280;6149;52.418;13.668;2023-08-06T07:45:48;100010.56;;;17.08;100.00
12172;BME280;6149;52.418;13.668;2023-08-06T07:48:14;100014.78;;;17.11;100.00
12172;BME280;6149;52.418;13.668;2023-08-06T07:50:41;100015.47;;;17.13;100.00
12172;BME280;6149;52.418;13.668;2023-08-06T07:53:17;100016.06;;;17.16;100.00
12172;BME280;6149;52.418;13.668;2023-08-06T07:55:49;100020.81;;;17.13;100.00
12172;BME280;6149;52.418;13.668;2023-08-06T07:58:21;100017.88;;;17.16;100.00
12172;BME280;6149;52.418;13.668;2023-08-06T08:00:49;100016.19;;;17.15;100.00
12172;BME280;6149;52.418;13.668;2023-08-06T08:03:18;100019.72;;;17.15;100.00
12172;BME280;6149;52.418;13.668;2023-08-06T08:05:46;100013.09;;;17.19;100.00
12172;BME280;6149;52.418;13.668;2023-08-06T08:08:13;100020.72;;;17.24;100.00
12172;BME280;6149;52.418;13.668;2023-08-06T08:10:41;100014.13;;;17.28;100.00
12172;BME280;6149;52.418;13.668;2023-08-06T08:13:12;100012.28;;;17.28;100.00
12172;BME280;6149;52.418;13.668;2023-08-06T08:15:40;100012.00;;;17.31;100.00
12172;BME280;6149;52.418;13.668;2023-08-06T08:18:07;100005.13;;;17.29;100.00
12172;BME280;6149;52.418;13.668;2023-08-06T08:20:34;100007.78;;;17.29;100.00
12172;BME280;6149;52.418;13.668;2023-08-06T08:23:01;99999.50;;;17.32;100.00
12172;BME280;6149;52.418;13.668;2023-08-06T08:25:28;99997.53;;;17.34;100.00
12172;BME280;6149;52.418;13.668;2023-08-06T08:27:58;99997.13;;;17.38;100.00
12172;BME280;6149;52.418;13.668;2023-08-06T08:30:27;99993.47;;;17.40;100.00
12172;BME280;6149;52.418;13.668;2023-08-06T08:32:55;99985.31;;;17.41;100.00
12172;BME280;6149;52.418;13.668;2023-08-06T08:35:21;99984.31;;;17.42;100.00
12172;BME280;6149;52.418;13.668;2023-08-06T08:37:49;99983.34;;;17.43;100.00
12172;BME280;6149;52.418;13.668;2023-08-06T08:40:23;99973.47;;;17.44;100.00
12172;BME280;6149;52.418;13.668;2023-08-06T08:42:52;99969.13;;;17.43;100.00
12172;BME280;6149;52.418;13.668;2023-08-06T08:45:22;99968.66;;;17.47;100.00
12172;BME280;6149;52.418;13.668;2023-08-06T08:47:55;99959.94;;;17.45;100.00
12172;BME280;6149;52.418;13.668;2023-08-06T08:50:22;99963.19;;;17.49;100.00
12172;BME280;6149;52.418;13.668;2023-08-06T08:52:50;99955.72;;;17.52;100.00
12172;BME280;6149;52.418;13.668;2023-08-06T08:55:21;99946.72;;;17.53;100.00
12172;BME280;6149;52.418;13.668;2023-08-06T08:57:51;99950.38;;;17.52;100.00
12172;BME280;6149;52.418;13.668;2023-08-06T09:00:25;99951.38;;;17.51;100.00
12172;BME280;6149;52.418;13.668;2023-08-06T09:02:53;99950.94;;;17.56;100.00
12172;BME280;6149;52.418;13.668;2023-08-06T09:05:26;99945.47;;;17.57;100.00
12172;BME280;6149;52.418;13.668;2023-08-06T09:08:02;99941.78;;;17.58;100.00
12172;BME280;6149;52.418;13.668;2023-08-06T09:10:31;99944.75;;;17.55;100.00
12172;BME280;6149;52.418;13.668;2023-08-06T09:12:59;99935.47;;;17.59;100.00
12172;BME280;6149;52.418;13.668;2023-08-06T09:15:28;99934.34;;;17.62;100.00
12172;BME280;6149;52.418;13.668;2023-08-06T09:17:58;99930.53;;;17.64;100.00
12172;BME280;6149;52.418;13.668;2023-08-06T09:20:26;99935.34;;;17.70;100.00
12172;BME280;6149;52.418;13.668;2023-08-06T09:22:54;99926.47;;;17.70;100.00
12172;BME280;6149;52.418;13.668;2023-08-06T09:25:25;99923.53;;;17.73;100.00
12172;BME280;6149;52.418;13.668;2023-08-06T09:27:54;99916.63;;;17.80;100.00
12172;BME280;6149;52.418;13.668;2023-08-06T09:30:29;99907.03;;;17.78;100.00
12172;BME280;6149;52.418;13.668;2023-08-06T09:32:59;99913.94;;;17.80;100.00
12172;BME280;6149;52.418;13.668;2023-08-06T09:35:28;99919.16;;;17.82;100.00
12172;BME280;6149;52.418;13.668;2023-08-06T09:38:05;99915.44;;;17.83;100.00
12172;BME280;6149;52.418;13.668;2023-08-06T09:40:33;99907.88;;;17.78;100.00
12172;BME280;6149;52.418;13.668;2023-08-06T09:43:01;99909.56;;;17.79;100.00
12172;BME280;6149;52.418;13.668;2023-08-06T09:45:30;99911.25;;;17.80;100.00
12172;BME280;6149;52.418;13.668;2023-08-06T09:48:04;99909.81;;;17.86;100.00
12172;BME280;6149;52.418;13.668;2023-08-06T09:50:34;99899.81;;;17.88;100.00
12172;BME280;6149;52.418;13.668;2023-08-06T09:53:02;99905.16;;;17.88;100.00
12172;BME280;6149;52.418;13.668;2023-08-06T09:55:31;99893.19;;;17.92;100.00
12172;BME280;6149;52.418;13.668;2023-08-06T09:58:00;99892.34;;;17.91;100.00
12172;BME280;6149;52.418;13.668;2023-08-06T10:00:27;99889.66;;;17.91;100.00
12172;BME280;6149;52.418;13.668;2023-08-06T10:03:00;99889.38;;;17.94;100.00
12172;BME280;6149;52.418;13.668;2023-08-06T10:05:31;99884.19;;;17.93;100.00
12172;BME280;6149;52.418;13.668;2023-08-06T10:07:59;99888.69;;;17.92;100.00
12172;BME280;6149;52.418;13.668;2023-08-06T10:10:26;99887.97;;;17.90;100.00
12172;BME280;6149;52.418;13.668;2023-08-06T10:12:57;99881.66;;;17.91;100.00
12172;BME280;6149;52.418;13.668;2023-08-06T10:15:29;99880.25;;;17.87;100.00
12172;BME280;6149;52.418;13.668;2023-08-06T10:18:00;99875.59;;;17.89;100.00
12172;BME280;6149;52.418;13.668;2023-08-06T10:20:34;99883.34;;;17.92;100.00
12172;BME280;6149;52.418;13.668;2023-08-06T10:23:01;99882.09;;;17.87;100.00
12172;BME280;6149;52.418;13.668;2023-08-06T10:25:31;99871.38;;;17.87;100.00
12172;BME280;6149;52.418;13.668;2023-08-06T10:28:00;99876.16;;;17.93;100.00
12172;BME280;6149;52.418;13.668;2023-08-06T10:30:29;99867.09;;;18.03;100.00
12172;BME280;6149;52.418;13.668;2023-08-06T10:32:59;99875.69;;;18.07;100.00
12172;BME280;6149;52.418;13.668;2023-08-06T10:35:31;99872.16;;;18.07;100.00
12172;BME280;6149;52.418;13.668;2023-08-06T10:38:08;99865.00;;;17.97;100.00
12172;BME280;6149;52.418;13.668;2023-08-06T10:40:40;99867.97;;;17.94;100.00
12172;BME280;6149;52.418;13.668;2023-08-06T10:43:25;99867.16;;;17.84;100.00
12172;BME280;6149;52.418;13.668;2023-08-06T10:45:54;99863.13;;;17.80;100.00
12172;BME280;6149;52.418;13.668;2023-08-06T10:48:32;99871.28;;;17.79;100.00
12172;BME280;6149;52.418;13.668;2023-08-06T10:51:03;99862.28;;;17.80;100.00
12172;BME280;6149;52.418;13.668;2023-08-06T10:53:35;99861.97;;;17.83;100.00
12172;BME280;6149;52.418;13.668;2023-08-06T10:56:12;99856.59;;;17.83;100.00
12172;BME280;6149;52.418;13.668;2023-08-06T10:58:40;99851.81;;;17.86;100.00
12172;BME280;6149;52.418;13.668;2023-08-06T11:01:07;99846.03;;;17.91;100.00
12172;BME280;6149;52.418;13.668;2023-08-06T11:03:36;99849.09;;;17.96;100.00
12172;BME280;6149;52.418;13.668;2023-08-06T11:06:06;99849.66;;;17.99;100.00
12172;BME280;6149;52.418;13.668;2023-08-06T11:08:36;99843.75;;;17.96;100.00
12172;BME280;6149;52.418;13.668;2023-08-06T11:11:10;99845.16;;;18.00;100.00
12172;BME280;6149;52.418;13.668;2023-08-06T11:13:38;99835.69;;;18.06;100.00
12172;BME280;6149;52.418;13.668;2023-08-06T11:16:08;99839.91;;;18.08;100.00
12172;BME280;6149;52.418;13.668;2023-08-06T11:18:37;99837.38;;;18.07;100.00
12172;BME280;6149;52.418;13.668;2023-08-06T11:21:08;99832.59;;;18.10;100.00
12172;BME280;6149;52.418;13.668;2023-08-06T11:23:36;99833.97;;;18.14;100.00
12172;BME280;6149;52.418;13.668;2023-08-06T11:26:03;99822.28;;;18.15;100.00
12172;BME280;6149;52.418;13.668;2023-08-06T11:28:30;99830.59;;;18.12;100.00
12172;BME280;6149;52.418;13.668;2023-08-06T11:30:59;99826.09;;;18.13;100.00
12172;BME280;6149;52.418;13.668;2023-08-06T11:33:28;99817.47;;;18.19;100.00
12172;BME280;6149;52.418;13.668;2023-08-06T11:35:58;99813.09;;;18.18;100.00
12172;BME280;6149;52.418;13.668;2023-08-06T11:38:32;99808.91;;;18.15;100.00
12172;BME280;6149;52.418;13.668;2023-08-06T11:41:00;99813.41;;;18.15;100.00
12172;BME280;6149;52.418;13.668;2023-08-06T11:43:30;99803.00;;;18.12;100.00
12172;BME280;6149;52.418;13.668;2023-08-06T11:45:58;99797.41;;;18.05;100.00
12172;BME280;6149;52.418;13.668;2023-08-06T11:48:26;99797.41;;;18.05;100.00
12172;BME280;6149;52.418;13.668;2023-08-06T11:50:55;99793.03;;;18.04;100.00
12172;BME280;6149;52.418;13.668;2023-08-06T11:53:28;99793.31;;;18.01;100.00
12172;BME280;6149;52.418;13.668;2023-08-06T11:55:56;99791.44;;;18.11;100.00
12172;BME280;6149;52.418;13.668;2023-08-06T11:58:23;99789.31;;;18.15;100.00
12172;BME280;6149;52.418;13.668;2023-08-06T12:00:52;99788.47;;;18.14;100.00
12172;BME280;6149;52.418;13.668;2023-08-06T12:03:21;99788.88;;;18.19;100.00
12172;BME280;6149;52.418;13.668;2023-08-06T12:05:54;99791.91;;;18.24;100.00
12172;BME280;6149;52.418;13.668;2023-08-06T12:08:20;99784.41;;;18.10;100.00
12172;BME280;6149;52.418;13.668;2023-08-06T12:10:49;99783.28;;;18.13;100.00
12172;BME280;6149;52.418;13.668;2023-08-06T12:13:17;99782.50;;;18.20;100.00
12172;BME280;6149;52.418;13.668;2023-08-06T12:15:45;99782.06;;;18.25;100.00
12172;BME280;6149;52.418;13.668;2023-08-06T12:18:13;99775.50;;;18.19;100.00
12172;BME280;6149;52.418;13.668;2023-08-06T12:20:40;99776.47;;;18.18;100.00
12172;BME280;6149;52.418;13.668;2023-08-06T12:23:07;99773.81;;;18.18;100.00
12172;BME280;6149;52.418;13.668;2023-08-06T12:25:35;99775.50;;;18.19;100.00
12172;BME280;6149;52.418;13.668;2023-08-06T12:28:03;99784.72;;;18.25;100.00
12172;BME280;6149;52.418;13.668;2023-08-06T12:30:31;99784.28;;;18.29;100.00
12172;BME280;6149;52.418;13.668;2023-08-06T12:32:58;99787.78;;;18.30;100.00
12172;BME280;6149;52.418;13.668;2023-08-06T12:35:25;99787.34;;;18.34;100.00
12172;BME280;6149;52.418;13.668;2023-08-06T12:37:53;99789.63;;;18.29;100.00
12172;BME280;6149;52.418;13.668;2023-08-06T12:40:20;99786.25;;;18.27;100.00
12172;BME280;6149;52.418;13.668;2023-08-06T12:42:47;99789.25;;;18.24;100.00
12172;BME280;6149;52.418;13.668;2023-08-06T12:45:16;99778.69;;;18.23;100.00
12172;BME280;6149;52.418;13.668;2023-08-06T12:47:47;99782.06;;;18.25;100.00
12172;BME280;6149;52.418;13.668;2023-08-06T12:50:15;99777.84;;;18.22;100.00
12172;BME280;6149;52.418;13.668;2023-08-06T12:52:46;99777.16;;;18.20;100.00